Terminal Aerodrome Forecast
Issued by NWS Pocatello, ID

Home | Current Version | Previous Version | Text Only | Print | Product List | Glossary On
Versions: 1 2 3 4 5 6 7 8 9 10 11 12
000
FTUS45 KPIH 291100
TAFIDA
TAF
KIDA 291120Z 2912/3012 VRB05KT P6SM BKN120
     FM291800 VRB05KT P6SM VCTS SCT080CB BKN140
     FM300400 VRB05KT P6SM BKN120=

USA.gov is the U.S. government's official web portal to all federal, state and local government web resources and services.